Time;durP1;ratioP1;P1;durP2;ratioP2;P2;SDS_P1;SDS_P2;PMS_P1;PMS_P2;Temp;Humidity;BMP_temperature;BMP_pressure;BME280_temperature;BME280_humidity;BME280_pressure;Samples;Min_cycle;Max_cycle;Signal;HPM_P1;HPM_P2
2023/04/19 00:04:25;;;;;;;5.05;3.60;;;;;;;8.37;100.00;99275.91;15271248;19;20018;-46
2023/04/19 00:09:50;;;;;;;4.35;3.05;;;;;;;8.30;100.00;99260.28;15269215;19;20021;-46
2023/04/19 00:15:15;;;;;;;3.28;2.97;;;;;;;8.22;100.00;99257.41;15264436;19;20601;-46
2023/04/19 00:20:42;;;;;;;5.07;3.25;;;;;;;8.17;100.00;99251.56;15268803;19;20021;-45
2023/04/19 00:26:07;;;;;;;3.53;2.80;;;;;;;8.11;100.00;99252.91;15265911;19;20014;-45
2023/04/19 00:31:35;;;;;;;4.90;2.90;;;;;;;8.14;100.00;99247.28;15264343;19;20019;-46
2023/04/19 00:37:03;;;;;;;4.18;3.17;;;;;;;8.07;100.00;99248.78;15271036;19;20018;-46
2023/04/19 00:42:27;;;;;;;3.85;3.33;;;;;;;7.95;100.00;99253.28;14755180;19;10000725;-46
2023/04/19 00:47:52;;;;;;;5.20;3.80;;;;;;;7.92;100.00;99256.25;15266671;19;20021;-46
2023/04/19 00:53:19;;;;;;;5.00;3.60;;;;;;;7.90;100.00;99260.88;15268166;19;20355;-46
2023/04/19 00:58:44;;;;;;;4.35;3.60;;;;;;;7.82;100.00;99247.22;15268749;19;20021;-46
2023/04/19 01:04:09;;;;;;;6.28;4.00;;;;;;;7.82;100.00;99247.22;15264946;19;20014;-46
2023/04/19 01:09:37;;;;;;;4.15;3.28;;;;;;;7.69;100.00;99220.53;15266193;19;20022;-46
2023/04/19 01:15:04;;;;;;;3.22;2.92;;;;;;;7.65;100.00;99219.06;15265791;19;20024;-46
2023/04/19 01:20:31;;;;;;;3.55;2.85;;;;;;;7.58;100.00;99225.88;15261290;19;20014;-46
2023/04/19 01:26:00;;;;;;;3.92;3.10;;;;;;;7.48;100.00;99232.00;15262268;19;20022;-46
2023/04/19 01:31:25;;;;;;;3.78;2.90;;;;;;;7.39;100.00;99227.38;15267215;19;20025;-46
2023/04/19 01:36:51;;;;;;;2.67;2.33;;;;;;;7.27;100.00;99222.97;15282769;19;20014;-46
2023/04/19 01:42:20;;;;;;;3.60;2.42;;;;;;;7.16;100.00;99205.91;15278950;19;20025;-46
2023/04/19 01:47:44;;;;;;;3.75;2.72;;;;;;;7.23;100.00;99206.28;15279927;19;20467;-45
2023/04/19 01:53:09;;;;;;;3.58;3.00;;;;;;;7.17;100.00;99204.06;15272524;19;20400;-46
2023/04/19 01:58:36;;;;;;;3.85;2.70;;;;;;;7.12;100.00;99201.75;15278239;19;20458;-45
2023/04/19 02:04:03;;;;;;;4.05;2.50;;;;;;;7.09;100.00;99189.44;15275332;19;20018;-47
2023/04/19 02:09:30;;;;;;;3.10;2.40;;;;;;;6.99;100.00;99190.28;15278089;19;20504;-45
2023/04/19 02:15:01;;;;;;;3.25;2.28;;;;;;;6.88;100.00;99193.81;15271368;19;20015;-45
2023/04/19 02:20:26;;;;;;;3.13;2.30;;;;;;;6.76;100.00;99192.91;15280992;19;20039;-45
2023/04/19 02:25:51;;;;;;;2.67;2.22;;;;;;;6.69;100.00;99191.69;15269231;19;20022;-46
2023/04/19 02:31:18;;;;;;;5.68;2.45;;;;;;;6.64;100.00;99192.03;15274161;19;20043;-45
2023/04/19 02:36:44;;;;;;;3.65;2.58;;;;;;;6.56;100.00;99191.75;15277796;19;20072;-46
2023/04/19 02:42:11;;;;;;;3.50;2.85;;;;;;;6.39;100.00;99196.56;15274808;19;20017;-47
2023/04/19 02:47:40;;;;;;;2.63;2.42;;;;;;;6.32;100.00;99192.63;15278665;19;20006;-46
2023/04/19 02:53:06;;;;;;;3.72;2.90;;;;;;;6.12;100.00;99181.59;15275861;19;20491;-45
2023/04/19 02:58:32;;;;;;;4.32;3.03;;;;;;;6.12;100.00;99183.41;15272429;19;20016;-48
2023/04/19 03:03:59;;;;;;;6.07;3.58;;;;;;;5.88;100.00;99192.25;15270574;19;20021;-48
2023/04/19 03:09:25;;;;;;;5.28;3.80;;;;;;;5.69;100.00;99182.06;15271495;19;20479;-46
2023/04/19 03:14:50;;;;;;;5.40;4.45;;;;;;;5.58;100.00;99185.50;15268764;19;20045;-47
2023/04/19 03:20:19;;;;;;;6.90;4.45;;;;;;;5.45;100.00;99190.00;15275695;19;20652;-48
2023/04/19 03:25:50;;;;;;;6.35;4.47;;;;;;;5.31;100.00;99188.34;15267208;19;20390;-48
2023/04/19 03:31:26;;;;;;;7.13;4.45;;;;;;;5.05;100.00;99189.22;15262652;19;20109;-46
2023/04/19 03:36:57;;;;;;;6.65;4.30;;;;;;;4.90;100.00;99191.13;15268171;19;20018;-47
2023/04/19 03:42:22;;;;;;;5.88;4.80;;;;;;;4.84;100.00;99183.53;15265955;19;20085;-49
2023/04/19 03:47:52;;;;;;;7.63;4.53;;;;;;;4.61;100.00;99185.97;15272586;19;20014;-49
2023/04/19 03:53:23;;;;;;;4.82;4.13;;;;;;;4.53;100.00;99168.78;15270197;19;20018;-47
2023/04/19 03:58:48;;;;;;;6.00;4.22;;;;;;;4.42;100.00;99161.47;15265699;19;20007;-48
2023/04/19 04:04:16;;;;;;;4.43;3.70;;;;;;;4.30;100.00;99156.00;15267305;19;20025;-47
2023/04/19 04:09:45;;;;;;;6.75;4.20;;;;;;;4.21;100.00;99161.97;15269626;19;20018;-47
2023/04/19 04:15:12;;;;;;;7.75;4.20;;;;;;;4.09;100.00;99174.31;15265580;19;20044;-48
2023/04/19 04:20:37;;;;;;;7.32;3.70;;;;;;;4.06;100.00;99179.84;15270109;19;20029;-51
2023/04/19 04:26:08;;;;;;;4.93;3.40;;;;;;;3.98;100.00;99175.03;15264601;19;20039;-48
2023/04/19 04:31:42;;;;;;;4.57;3.10;;;;;;;3.95;100.00;99163.72;15260954;19;20017;-46
2023/04/19 04:37:12;;;;;;;6.70;3.30;;;;;;;3.82;100.00;99167.19;15268271;19;20661;-47
2023/04/19 04:42:41;;;;;;;4.93;3.10;;;;;;;3.83;100.00;99168.00;15258679;19;20049;-46
2023/04/19 04:48:08;;;;;;;4.43;3.05;;;;;;;3.79;100.00;99166.53;15269009;19;20044;-47
2023/04/19 04:53:34;;;;;;;5.32;2.92;;;;;;;3.75;100.00;99170.34;15266413;19;20030;-46
2023/04/19 04:59:02;;;;;;;5.28;2.92;;;;;;;3.75;100.00;99162.34;15268883;19;20122;-47
2023/04/19 05:04:31;;;;;;;4.75;2.53;;;;;;;3.77;100.00;99155.09;15260921;19;20025;-47
2023/04/19 05:09:56;;;;;;;4.15;2.90;;;;;;;3.81;100.00;99167.28;15281448;19;20090;-47
2023/04/19 05:15:30;;;;;;;6.38;2.50;;;;;;;3.83;100.00;99168.00;15271120;19;20018;-46
2023/04/19 05:20:55;;;;;;;6.20;2.60;;;;;;;3.80;100.00;99168.25;15281952;19;20011;-49
2023/04/19 05:26:27;;;;;;;4.95;2.13;;;;;;;3.88;100.00;99168.59;15275568;19;20082;-46
2023/04/19 05:31:56;;;;;;;4.78;2.17;;;;;;;3.91;100.00;99160.41;15274320;19;20014;-46
2023/04/19 05:37:29;;;;;;;3.67;2.10;;;;;;;3.93;100.00;99160.28;15276498;19;20026;-49
2023/04/19 05:42:54;;;;;;;3.33;2.00;;;;;;;3.94;100.00;99154.84;15278819;19;20078;-47
2023/04/19 05:48:24;;;;;;;2.85;1.90;;;;;;;4.05;100.00;99139.97;15281001;19;20022;-47
2023/04/19 05:54:14;;;;;;;5.97;2.03;;;;;;;4.09;100.00;99141.47;15278523;19;20011;-46
2023/04/19 05:59:38;;;;;;;4.45;1.95;;;;;;;4.12;100.00;99146.59;15281197;19;20014;-46
2023/04/19 06:05:10;;;;;;;4.32;2.03;;;;;;;4.24;100.00;99140.44;15274632;19;20372;-47
2023/04/19 06:10:34;;;;;;;3.65;1.90;;;;;;;4.20;100.00;99138.94;15273726;19;20014;-48
2023/04/19 06:16:06;;;;;;;2.97;1.83;;;;;;;4.28;100.00;99131.28;15272595;19;20014;-47
2023/04/19 06:21:33;;;;;;;2.05;1.58;;;;;;;4.32;100.00;99130.09;15278088;19;20671;-54
2023/04/19 06:26:59;;;;;;;2.78;1.70;;;;;;;4.32;100.00;99140.75;15275812;19;20023;-47
2023/04/19 06:32:24;;;;;;;2.47;1.63;;;;;;;4.34;100.00;99129.13;15275249;19;20017;-47
2023/04/19 06:37:52;;;;;;;3.58;1.92;;;;;;;4.24;100.00;99140.44;15278862;19;20018;-47
2023/04/19 06:43:16;;;;;;;2.88;1.70;;;;;;;4.27;100.00;99134.91;15270164;19;20025;-48
2023/04/19 06:48:41;;;;;;;5.97;1.70;;;;;;;4.26;100.00;99132.31;15254780;19;20411;-47
2023/04/19 06:54:08;;;;;;;3.20;1.67;;;;;;;4.29;100.00;99132.97;15271699;19;20015;-47
2023/04/19 06:59:34;;;;;;;3.10;1.80;;;;;;;4.32;100.00;99142.59;15274948;19;20114;-46
2023/04/19 07:04:58;;;;;;;2.60;1.70;;;;;;;4.45;100.00;99126.59;15271784;19;20018;-47
2023/04/19 07:10:26;;;;;;;2.53;1.80;;;;;;;4.59;100.00;99123.84;15276095;19;20014;-47
2023/04/19 07:15:50;;;;;;;2.70;1.70;;;;;;;4.73;100.00;99122.03;15261922;19;20019;-47
2023/04/19 07:21:17;;;;;;;2.65;1.50;;;;;;;4.76;100.00;99111.16;15272490;19;20479;-47
2023/04/19 07:26:44;;;;;;;3.72;1.55;;;;;;;4.80;100.00;99104.63;15273398;19;20010;-47
2023/04/19 07:32:15;;;;;;;4.10;1.70;;;;;;;4.96;100.00;99104.38;15270967;19;20015;-49
2023/04/19 07:37:40;;;;;;;2.23;1.70;;;;;;;5.16;100.00;99110.16;15272084;19;20054;-47
2023/04/19 07:43:07;;;;;;;2.20;1.60;;;;;;;5.12;100.00;99104.13;15271940;19;20037;-51
2023/04/19 07:48:32;;;;;;;2.28;1.50;;;;;;;5.32;100.00;99099.19;15271110;19;20025;-47
2023/04/19 07:53:56;;;;;;;2.75;1.50;;;;;;;5.58;100.00;99088.44;15270347;19;20022;-50
2023/04/19 07:59:24;;;;;;;5.20;2.35;;;;;;;5.49;100.00;99100.66;15273018;19;20669;-47
2023/04/19 08:04:50;;;;;;;3.63;1.65;;;;;;;5.44;100.00;99092.09;15265865;19;20684;-47
2023/04/19 08:10:17;;;;;;;5.63;2.00;;;;;;;5.43;100.00;99093.06;15273029;19;20015;-47
2023/04/19 08:15:44;;;;;;;3.22;1.50;;;;;;;5.53;100.00;99084.28;15269293;19;20018;-47
2023/04/19 08:21:30;;;;;;;6.63;1.77;;;;;;;5.71;100.00;99089.22;15267472;19;20010;-49
2023/04/19 08:26:57;;;;;;;2.72;1.60;;;;;;;5.66;100.00;99094.06;15267959;19;20071;-47
2023/04/19 08:32:25;;;;;;;3.60;1.50;;;;;;;5.79;100.00;99102.00;15269574;19;20023;-47
2023/04/19 08:37:50;;;;;;;5.03;1.90;;;;;;;5.99;100.00;99088.06;15270869;19;20033;-46
2023/04/19 08:43:16;;;;;;;3.33;1.85;;;;;;;6.13;100.00;99083.47;15266940;19;20150;-48
2023/04/19 08:48:48;;;;;;;2.15;1.35;;;;;;;6.15;100.00;99077.03;15271795;19;20131;-46
2023/04/19 08:54:15;;;;;;;2.28;1.50;;;;;;;6.46;100.00;99080.03;15261125;19;20010;-47
2023/04/19 08:59:44;;;;;;;2.90;1.42;;;;;;;6.43;100.00;99074.06;15268973;19;20026;-47
2023/04/19 09:05:14;;;;;;;2.42;1.13;;;;;;;6.58;100.00;99080.91;15264250;19;20178;-48
2023/04/19 09:10:38;;;;;;;2.92;1.50;;;;;;;6.72;100.00;99066.44;15268719;19;20389;-50
2023/04/19 09:16:03;;;;;;;5.03;1.63;;;;;;;6.85;100.00;99057.44;15265496;19;20030;-49
2023/04/19 09:21:39;;;;;;;4.10;1.38;;;;;;;6.82;100.00;99049.63;15266976;19;20501;-48
2023/04/19 09:27:04;;;;;;;2.72;1.50;;;;;;;6.88;100.00;99058.03;15265207;19;20018;-48
2023/04/19 09:32:29;;;;;;;4.53;1.50;;;;;;;7.03;100.00;99022.97;15264228;19;20090;-47
2023/04/19 09:38:04;;;;;;;2.75;1.30;;;;;;;7.04;100.00;99014.78;15267536;19;20482;-50
2023/04/19 09:43:32;;;;;;;4.25;1.33;;;;;;;7.13;100.00;99025.72;15264381;19;20551;-47
2023/04/19 09:49:18;;;;;;;4.27;1.60;;;;;;;7.30;100.00;99024.34;15268335;19;20367;-47
2023/04/19 09:55:09;;;;;;;2.83;1.60;;;;;;;7.37;100.00;99014.84;15260658;19;20486;-47
2023/04/19 10:00:46;;;;;;;4.10;1.42;;;;;;;7.50;100.00;99003.94;15280967;19;20422;-48
2023/04/19 10:06:28;;;;;;;1.25;1.10;;;;;;;7.67;100.00;98999.88;15276342;19;20049;-48
2023/04/19 10:12:09;;;;;;;1.60;1.20;;;;;;;7.78;100.00;99007.03;15278764;19;20770;-51
2023/04/19 10:17:54;;;;;;;2.83;1.47;;;;;;;7.95;100.00;98998.38;15281241;19;20015;-47
2023/04/19 10:23:19;;;;;;;1.77;1.25;;;;;;;7.93;100.00;98989.63;15277725;19;20018;-47
2023/04/19 10:28:53;;;;;;;2.97;1.48;;;;;;;8.00;100.00;98985.44;15272312;19;20018;-47
2023/04/19 10:34:38;;;;;;;1.55;1.30;;;;;;;8.10;100.00;98984.66;15273002;19;20025;-47
2023/04/19 10:40:04;;;;;;;2.25;1.38;;;;;;;8.18;100.00;98963.34;15279257;19;20022;-47
2023/04/19 10:45:39;;;;;;;3.17;1.33;;;;;;;8.44;100.00;98955.75;15272525;19;20620;-47
2023/04/19 10:51:06;;;;;;;3.83;1.40;;;;;;;8.48;100.00;98950.97;15278319;19;20025;-49
2023/04/19 10:57:00;;;;;;;6.20;2.25;;;;;;;8.42;100.00;98936.22;15276652;19;20446;-47
2023/04/19 11:02:47;;;;;;;2.55;1.20;;;;;;;8.77;100.00;98923.34;15270426;19;20017;-48
2023/04/19 11:08:24;;;;;;;2.88;1.20;;;;;;;9.01;100.00;98919.44;15276527;19;20021;-48
2023/04/19 11:13:52;;;;;;;2.35;1.40;;;;;;;9.27;100.00;98913.53;15270677;19;20014;-46
2023/04/19 11:19:21;;;;;;;2.38;1.40;;;;;;;8.71;100.00;98911.31;15279186;19;20017;-49
2023/04/19 11:24:45;;;;;;;3.65;1.25;;;;;;;9.06;100.00;98891.16;15273075;19;20022;-49
2023/04/19 11:30:21;;;;;;;2.33;1.40;;;;;;;9.23;100.00;98891.47;15276895;19;20026;-47
2023/04/19 11:35:49;;;;;;;1.70;1.30;;;;;;;8.98;100.00;98892.88;15263945;19;20404;-50
2023/04/19 11:41:14;;;;;;;1.65;1.10;;;;;;;9.03;100.00;98879.84;15272014;19;20041;-50
2023/04/19 11:46:38;;;;;;;3.33;1.20;;;;;;;9.20;95.23;98881.84;15276069;19;20024;-51
2023/04/19 11:52:10;;;;;;;1.83;1.10;;;;;;;9.30;100.00;98875.63;15273927;19;20025;-50
2023/04/19 11:57:35;;;;;;;2.40;1.30;;;;;;;9.46;97.30;98867.84;15273099;19;20084;-48
2023/04/19 12:03:00;;;;;;;4.43;1.50;;;;;;;9.73;100.00;98860.00;15268027;19;20018;-52
2023/04/19 12:08:39;;;;;;;1.63;1.20;;;;;;;9.48;95.19;98868.50;15272422;19;20423;-51
2023/04/19 12:14:17;;;;;;;2.13;1.20;;;;;;;9.46;88.73;98849.00;15267581;19;20025;-48
2023/04/19 12:19:47;;;;;;;2.13;1.30;;;;;;;9.60;81.39;98845.00;15271484;19;20022;-48
2023/04/19 12:25:14;;;;;;;2.75;1.20;;;;;;;10.01;85.70;98829.44;15267941;19;20018;-47
2023/04/19 12:30:40;;;;;;;3.17;1.35;;;;;;;9.77;87.60;98829.97;15272215;19;20025;-47
2023/04/19 12:36:05;;;;;;;1.92;1.20;;;;;;;9.56;86.64;98816.69;15261857;19;20602;-48
2023/04/19 12:41:33;;;;;;;1.98;1.10;;;;;;;9.46;84.07;98816.72;15269989;19;20621;-48
2023/04/19 12:46:57;;;;;;;2.47;1.10;;;;;;;9.76;88.51;98806.72;15271021;19;20917;-49
2023/04/19 12:52:22;;;;;;;3.75;1.10;;;;;;;10.12;79.66;98812.25;15269096;19;20018;-50
2023/04/19 12:57:51;;;;;;;1.55;1.17;;;;;;;10.42;77.57;98799.50;15269005;19;20037;-51
2023/04/19 13:03:15;;;;;;;4.15;1.10;;;;;;;10.05;65.57;98797.72;15267993;19;21567;-48
2023/04/19 13:08:40;;;;;;;2.58;1.17;;;;;;;10.07;78.18;98790.31;15264057;19;20963;-52
2023/04/19 13:14:08;;;;;;;1.48;1.10;;;;;;;10.22;71.35;98776.34;15265847;19;20053;-47
2023/04/19 13:19:32;;;;;;;2.03;1.08;;;;;;;10.05;74.09;98783.38;15271241;19;20680;-48
2023/04/19 13:24:57;;;;;;;2.50;1.10;;;;;;;9.84;79.29;98766.47;15263748;19;20014;-49
2023/04/19 13:30:31;;;;;;;1.77;1.30;;;;;;;9.62;88.78;98778.47;15282621;19;20411;-47
2023/04/19 13:35:56;;;;;;;4.07;1.20;;;;;;;9.52;82.29;98773.09;15274854;19;20017;-50
2023/04/19 13:41:21;;;;;;;2.28;1.10;;;;;;;9.56;87.17;98753.00;15275565;19;20033;-48
2023/04/19 13:46:48;;;;;;;1.80;1.30;;;;;;;10.23;81.96;98754.66;15279794;19;20018;-48
2023/04/19 13:52:13;;;;;;;1.65;1.20;;;;;;;10.67;84.17;98740.50;15282787;19;20037;-49
2023/04/19 13:57:37;;;;;;;1.98;1.25;;;;;;;10.60;82.93;98750.19;15282929;19;20602;-47
2023/04/19 14:03:05;;;;;;;2.45;1.40;;;;;;;9.56;100.00;98741.38;15280912;19;20582;-47
2023/04/19 14:08:30;;;;;;;2.22;1.25;;;;;;;9.26;100.00;98762.13;15282871;19;20893;-49
2023/04/19 14:13:56;;;;;;;2.60;1.25;;;;;;;9.02;100.00;98770.63;15275404;19;20022;-49
2023/04/19 14:19:23;;;;;;;2.17;1.35;;;;;;;9.05;100.00;98747.03;15282577;19;20011;-47
2023/04/19 14:24:48;;;;;;;2.92;1.40;;;;;;;9.15;100.00;98736.25;15274556;19;20018;-48
2023/04/19 14:30:20;;;;;;;2.10;1.38;;;;;;;9.32;100.00;98745.41;15274847;19;20018;-49
2023/04/19 14:35:50;;;;;;;1.83;1.20;;;;;;;9.18;100.00;98743.16;15270256;19;20018;-49
2023/04/19 14:41:15;;;;;;;2.63;1.20;;;;;;;9.20;100.00;98722.38;15273633;19;20025;-48
2023/04/19 14:46:39;;;;;;;4.93;1.17;;;;;;;9.13;100.00;98705.97;15271727;19;20026;-47
2023/04/19 14:52:08;;;;;;;2.97;1.20;;;;;;;9.09;100.00;98709.97;15274639;19;20014;-47
2023/04/19 14:57:32;;;;;;;3.92;1.30;;;;;;;9.20;100.00;98698.19;15284952;19;20017;-46
2023/04/19 15:02:57;;;;;;;1.48;1.10;;;;;;;9.36;100.00;98697.56;15274244;19;20014;-47
2023/04/19 15:08:24;;;;;;;2.67;1.13;;;;;;;9.30;100.00;98696.31;15275771;19;20014;-47
2023/04/19 15:13:49;;;;;;;2.28;1.10;;;;;;;9.29;100.00;98699.16;15271856;19;20011;-47
2023/04/19 15:19:13;;;;;;;3.42;1.20;;;;;;;9.13;100.00;98687.16;15270349;19;20027;-49
2023/04/19 15:24:42;;;;;;;2.67;1.00;;;;;;;9.15;100.00;98678.97;15267362;19;20018;-47
2023/04/19 15:30:14;;;;;;;0.93;0.90;;;;;;;9.31;100.00;98679.19;15267413;19;20044;-47
2023/04/19 15:35:38;;;;;;;4.05;1.00;;;;;;;10.06;100.00;98680.94;15270729;19;20477;-49
2023/04/19 15:41:07;;;;;;;5.32;1.10;;;;;;;10.43;84.60;98666.53;15272811;19;20479;-47
2023/04/19 15:46:31;;;;;;;1.80;1.00;;;;;;;10.42;81.96;98672.06;15269782;19;20023;-48
2023/04/19 15:51:56;;;;;;;2.67;1.00;;;;;;;10.25;93.20;98677.25;15268463;19;20020;-48
2023/04/19 15:57:23;;;;;;;1.45;1.00;;;;;;;10.05;100.00;98681.97;15270929;19;20025;-48
2023/04/19 16:02:48;;;;;;;1.48;1.10;;;;;;;9.84;100.00;98680.34;15269012;19;20464;-48
2023/04/19 16:08:18;;;;;;;2.83;1.23;;;;;;;9.63;94.13;98679.75;15272233;19;20037;-47
2023/04/19 16:13:45;;;;;;;2.65;1.30;;;;;;;9.50;100.00;98678.25;15268786;19;20476;-48
2023/04/19 16:19:09;;;;;;;2.70;1.00;;;;;;;9.41;100.00;98679.16;15274244;19;20085;-52
2023/04/19 16:24:35;;;;;;;2.17;1.60;;;;;;;9.55;100.00;98692.13;15259677;19;20018;-50
2023/04/19 16:30:02;;;;;;;6.30;1.42;;;;;;;9.37;100.00;98692.06;15259567;19;20024;-48
2023/04/19 16:35:27;;;;;;;3.65;1.70;;;;;;;8.87;100.00;98698.53;15263448;19;20371;-48
2023/04/19 16:40:53;;;;;;;1.77;1.45;;;;;;;8.55;100.00;98709.59;15267450;19;20031;-47
2023/04/19 16:46:21;;;;;;;3.90;1.67;;;;;;;8.37;100.00;98696.81;15263460;19;20633;-47
2023/04/19 16:51:46;;;;;;;3.72;1.60;;;;;;;8.23;100.00;98694.56;15264839;19;20029;-48
2023/04/19 16:57:11;;;;;;;3.45;1.50;;;;;;;8.02;100.00;98691.00;15258425;19;20026;-48
2023/04/19 17:02:39;;;;;;;2.97;1.50;;;;;;;7.91;100.00;98683.06;15268095;19;20049;-47
2023/04/19 17:08:04;;;;;;;2.55;1.50;;;;;;;7.88;100.00;98683.34;15283468;19;20022;-48
2023/04/19 17:13:28;;;;;;;1.67;1.50;;;;;;;7.94;100.00;98672.03;15280507;19;20018;-49
2023/04/19 17:18:56;;;;;;;1.92;1.40;;;;;;;7.92;100.00;98665.13;15285201;19;20014;-47
2023/04/19 17:24:20;;;;;;;2.22;1.55;;;;;;;7.94;100.00;98655.94;15276787;19;20994;-51
2023/04/19 17:29:52;;;;;;;2.38;1.40;;;;;;;7.92;100.00;98657.94;15269515;19;20026;-46
2023/04/19 17:35:19;;;;;;;2.90;1.60;;;;;;;7.85;100.00;98670.19;15276688;19;20487;-47
2023/04/19 17:40:44;;;;;;;5.22;1.70;;;;;;;7.83;100.00;98666.78;15280058;19;20025;-47
2023/04/19 17:46:08;;;;;;;3.40;1.80;;;;;;;7.77;100.00;98662.00;15270670;19;20033;-48
2023/04/19 17:51:36;;;;;;;1.85;1.30;;;;;;;7.77;100.00;98653.94;15275841;19;20022;-52
2023/04/19 17:57:02;;;;;;;4.88;1.60;;;;;;;7.71;100.00;98648.13;15275315;19;20018;-48
2023/04/19 18:02:28;;;;;;;3.13;1.60;;;;;;;7.63;100.00;98647.97;15271889;19;20014;-50
2023/04/19 18:07:57;;;;;;;2.50;1.60;;;;;;;7.55;100.00;98653.19;15276696;19;20010;-49
2023/04/19 18:13:22;;;;;;;3.13;1.80;;;;;;;7.56;100.00;98665.63;15271988;19;20022;-47
2023/04/19 18:18:46;;;;;;;2.17;1.50;;;;;;;7.50;100.00;98653.59;15279861;19;20010;-49
2023/04/19 18:24:15;;;;;;;2.10;1.50;;;;;;;7.47;100.00;98651.19;15275491;19;20010;-47
2023/04/19 18:29:46;;;;;;;2.88;1.75;;;;;;;7.44;100.00;98650.63;15271918;19;20019;-48
2023/04/19 18:35:11;;;;;;;1.70;1.60;;;;;;;7.37;100.00;98659.19;15269350;19;20028;-47
2023/04/19 18:40:39;;;;;;;3.65;1.58;;;;;;;7.32;100.00;98657.88;15276486;19;20018;-46
2023/04/19 18:46:03;;;;;;;3.47;1.60;;;;;;;7.23;100.00;98664.94;15267780;19;20019;-46
2023/04/19 18:51:28;;;;;;;4.13;1.80;;;;;;;7.16;100.00;98663.75;15278583;19;20011;-48
2023/04/19 18:56:57;;;;;;;2.53;1.67;;;;;;;7.05;100.00;98665.53;15274644;19;20018;-46
2023/04/19 19:02:40;;;;;;;2.47;1.60;;;;;;;7.03;100.00;98664.81;15269908;19;20021;-48
2023/04/19 19:08:04;;;;;;;3.47;1.60;;;;;;;6.91;100.00;98664.06;15273690;19;20024;-47
2023/04/19 19:13:32;;;;;;;3.13;1.90;;;;;;;6.86;100.00;98660.91;15272052;19;20030;-46
2023/04/19 19:18:57;;;;;;;4.30;1.90;;;;;;;6.63;100.00;98685.13;15273841;19;20021;-47
2023/04/19 19:24:21;;;;;;;6.70;2.00;;;;;;;5.96;100.00;98688.88;15268142;19;20014;-47
2023/04/19 19:29:55;;;;;;;5.57;2.38;;;;;;;5.60;100.00;98690.88;15270127;19;20029;-46
2023/04/19 19:35:19;;;;;;;7.32;2.35;;;;;;;5.26;100.00;98707.78;15263834;19;20010;-46
2023/04/19 19:40:44;;;;;;;5.57;2.33;;;;;;;5.16;100.00;98699.63;15268682;19;20029;-47
2023/04/19 19:46:14;;;;;;;5.30;2.30;;;;;;;4.94;100.00;98717.34;15267567;19;20025;-46
2023/04/19 19:51:39;;;;;;;5.65;2.60;;;;;;;4.65;100.00;98721.34;15268866;19;20006;-47
2023/04/19 19:57:15;;;;;;;6.85;2.65;;;;;;;4.53;100.00;98723.16;15267958;19;20025;-47
2023/04/19 20:02:46;;;;;;;4.35;2.40;;;;;;;4.35;100.00;98715.53;15267908;19;20046;-46
2023/04/19 20:08:15;;;;;;;6.90;2.50;;;;;;;4.25;100.00;98722.53;15263168;19;20047;-46
2023/04/19 20:13:40;;;;;;;5.00;2.63;;;;;;;4.10;100.00;98728.06;15263955;19;20015;-46
2023/04/19 20:19:10;;;;;;;5.43;2.60;;;;;;;3.95;100.00;98735.34;15269130;19;20022;-46
2023/04/19 20:24:36;;;;;;;3.33;2.90;;;;;;;3.83;100.00;98734.44;15264817;19;20014;-46
2023/04/19 20:30:08;;;;;;;3.45;2.83;;;;;;;3.70;100.00;98736.25;15265134;19;20021;-46
2023/04/19 20:35:36;;;;;;;3.40;3.10;;;;;;;3.70;100.00;98745.09;15267480;19;20471;-46
2023/04/19 20:41:01;;;;;;;3.95;2.97;;;;;;;3.51;100.00;98750.91;15263109;19;20767;-47
2023/04/19 20:46:26;;;;;;;3.20;2.90;;;;;;;3.52;100.00;98735.75;15266302;19;20054;-45
2023/04/19 20:51:54;;;;;;;2.58;2.38;;;;;;;3.52;100.00;98743.75;15270347;19;20017;-45
2023/04/19 20:57:18;;;;;;;2.13;1.92;;;;;;;3.26;100.00;98733.13;15264860;19;20022;-45
2023/04/19 21:02:44;;;;;;;2.45;2.15;;;;;;;3.33;100.00;98738.88;15265033;19;20015;-46
2023/04/19 21:08:11;;;;;;;2.17;1.98;;;;;;;3.32;100.00;98732.69;15269819;19;20019;-45
2023/04/19 21:13:36;;;;;;;2.45;2.10;;;;;;;3.38;100.00;98729.59;15260265;19;20026;-47
2023/04/19 21:19:01;;;;;;;2.30;2.10;;;;;;;3.31;100.00;98723.00;15269417;19;20014;-46
2023/04/19 21:24:29;;;;;;;2.13;1.90;;;;;;;3.31;100.00;98720.34;15264733;19;20010;-45
2023/04/19 21:30:00;;;;;;;2.55;2.28;;;;;;;3.24;100.00;98713.72;15266013;19;20017;-45
2023/04/19 21:35:24;;;;;;;2.50;2.30;;;;;;;3.31;100.00;98723.00;15265186;19;20033;-47
2023/04/19 21:40:52;;;;;;;2.65;2.33;;;;;;;3.32;100.00;98722.06;15266599;19;20616;-47
2023/04/19 21:46:16;;;;;;;2.50;2.30;;;;;;;3.36;100.00;98717.34;15256963;19;20029;-45
2023/04/19 21:51:41;;;;;;;2.70;2.50;;;;;;;3.32;100.00;98711.41;15278885;19;20014;-47
2023/04/19 21:57:09;;;;;;;2.97;2.40;;;;;;;3.26;100.00;98708.31;15277619;19;20917;-47
2023/04/19 22:02:34;;;;;;;2.90;2.60;;;;;;;3.36;100.00;98701.38;15278048;19;20022;-45
2023/04/19 22:07:59;;;;;;;2.83;2.63;;;;;;;3.36;100.00;98696.88;15281348;19;20014;-46
2023/04/19 22:13:27;;;;;;;2.92;2.50;;;;;;;3.38;100.00;98688.81;15277757;19;20041;-46
2023/04/19 22:18:51;;;;;;;3.00;2.70;;;;;;;3.28;100.00;98683.28;15271135;19;20026;-46
2023/04/19 22:24:17;;;;;;;3.30;3.00;;;;;;;3.24;100.00;98679.13;15276316;19;20031;-46
2023/04/19 22:29:44;;;;;;;3.30;3.00;;;;;;;3.24;100.00;98679.13;15276854;19;20021;-47
2023/04/19 22:35:09;;;;;;;3.30;3.00;;;;;;;3.23;100.00;98682.75;15273474;19;20085;-47
2023/04/19 22:40:34;;;;;;;3.60;2.90;;;;;;;3.24;100.00;98681.78;15279980;19;20356;-46
2023/04/19 22:46:02;;;;;;;3.00;2.80;;;;;;;3.26;100.00;98674.53;15272924;19;20017;-48
2023/04/19 22:51:28;;;;;;;3.45;3.15;;;;;;;3.29;100.00;98669.00;15272628;19;20656;-46
2023/04/19 22:56:52;;;;;;;3.15;2.85;;;;;;;3.24;100.00;98666.66;15275550;19;20018;-46
2023/04/19 23:02:19;;;;;;;3.40;3.10;;;;;;;3.29;100.00;98663.69;15275065;19;20026;-45
2023/04/19 23:07:44;;;;;;;4.88;3.35;;;;;;;3.28;100.00;98659.31;15277811;19;20482;-46
2023/04/19 23:13:14;;;;;;;4.15;3.78;;;;;;;3.22;100.00;98663.25;15275116;19;20021;-47
2023/04/19 23:18:43;;;;;;;4.53;4.13;;;;;;;3.24;100.00;98664.00;15272753;19;20025;-47
2023/04/19 23:24:09;;;;;;;5.00;4.50;;;;;;;3.22;100.00;98657.09;15267215;19;20022;-46
2023/04/19 23:29:41;;;;;;;5.70;5.20;;;;;;;3.23;100.00;98656.13;15273015;19;20026;-48
2023/04/19 23:35:09;;;;;;;5.40;4.97;;;;;;;3.29;100.00;98655.69;15272053;19;20010;-48
2023/04/19 23:40:35;;;;;;;5.70;5.18;;;;;;;3.31;100.00;98651.09;15276017;19;20259;-45
2023/04/19 23:46:00;;;;;;;5.88;5.38;;;;;;;3.38;100.00;98656.84;15270727;19;20102;-47
2023/04/19 23:51:28;;;;;;;5.50;5.00;;;;;;;3.42;100.00;98647.66;15274953;19;20018;-46
2023/04/19 23:56:53;;;;;;;5.35;4.95;;;;;;;3.45;100.00;98635.94;15267024;19;20026;-46
